Washingtonville, New York
Current Conditions -  °F | °C
As of 10:45 AM on Thursday 27 Nov 2014 (Local Time) from KSWF Reporting Station
Light Snow Light Snow  
Wind Chill: 27°   Ceiling: 900
Heat Index: 32°   Visibility: 1mi
Dew Point: 30°   Wind: 5mph
Humidity: 93%   Direction: 40°NE
Pressure: 30"   Gusts: NA
Location:  41.43°N, 74.17°W
Report Text: KSWF 271545Z 04004KT 1SM R09/3500FT -SN BR OVC009 00/M01 A3000
Loading
Personal Weather Stations






























Interactive Weather Map New forecast layout! Learn more

10-Day Weather Forecast

Advertisements
Track Severe Weather on mobile